Flugplatz Lachen-Speyerdorf

Für EDRL sind keine METAR/TAF Berichte vorhanden.
Es werden die Flugwettermeldungen vom Flugplatz Mannheim-City in 26 km Entfernung angezeigt.

Bericht für EDFM

vom 15.07. um 17:20 UTC

Wind 4 kt aus 260°

Sichtweite 10 km oder mehr

gute Sicht, keine Wolken < 5000 ft, keine CB, keine Wettererscheinungen (CAVOK)

Temperatur 21.0°C

Taupunkt 10.0°C

Luftfeuchtigkeit 49%

Luftdruck 1014 hPa

EDFM 151720Z 26004KT 210V300 CAVOK 21/10 Q1014

Prognose für EDFM

vom 15.07. um 17:00 UTC

Zwischen 18:00 UTC und 21:00 UTC

variable Windrichtung mit 3 kt

Sichtweite 10 km oder mehr

aufgelockert bewölkt in 2500 ft

TAF EDFM 151700Z 1518/1521 VRB03KT 9999 SCT025
Impressum